sensor_id;sensor_type;location;lat;lon;timestamp;P1;durP1;ratioP1;P2;durP2;ratioP2
16735;SDS011;17990;49.548;9.730;2024-03-23T00:55:29;8.23;;;6.33;;
16735;SDS011;17990;49.548;9.730;2024-03-23T00:57:56;10.00;;;6.10;;
16735;SDS011;17990;49.548;9.730;2024-03-23T01:00:22;8.70;;;5.70;;
16735;SDS011;17990;49.548;9.730;2024-03-23T01:02:48;8.73;;;5.67;;
16735;SDS011;17990;49.548;9.730;2024-03-23T01:05:14;8.70;;;5.90;;
16735;SDS011;17990;49.548;9.730;2024-03-23T01:07:41;11.80;;;6.40;;
16735;SDS011;17990;49.548;9.730;2024-03-23T01:10:07;9.73;;;6.00;;
16735;SDS011;17990;49.548;9.730;2024-03-23T01:12:36;9.20;;;5.70;;
16735;SDS011;17990;49.548;9.730;2024-03-23T01:15:02;10.63;;;6.20;;
16735;SDS011;17990;49.548;9.730;2024-03-23T01:17:29;10.33;;;6.10;;
16735;SDS011;17990;49.548;9.730;2024-03-23T01:19:55;7.40;;;5.60;;
16735;SDS011;17990;49.548;9.730;2024-03-23T01:22:22;9.87;;;6.33;;
16735;SDS011;17990;49.548;9.730;2024-03-23T01:24:48;8.23;;;5.87;;
16735;SDS011;17990;49.548;9.730;2024-03-23T01:27:14;9.33;;;5.67;;
16735;SDS011;17990;49.548;9.730;2024-03-23T01:29:42;9.33;;;5.87;;
16735;SDS011;17990;49.548;9.730;2024-03-23T01:32:08;9.93;;;5.97;;
16735;SDS011;17990;49.548;9.730;2024-03-23T01:34:34;8.53;;;5.67;;
16735;SDS011;17990;49.548;9.730;2024-03-23T01:37:01;8.33;;;5.60;;
16735;SDS011;17990;49.548;9.730;2024-03-23T01:39:27;8.73;;;6.33;;
16735;SDS011;17990;49.548;9.730;2024-03-23T01:41:54;8.67;;;5.50;;
16735;SDS011;17990;49.548;9.730;2024-03-23T01:44:20;7.03;;;5.83;;
16735;SDS011;17990;49.548;9.730;2024-03-23T01:46:49;10.30;;;5.60;;
16735;SDS011;17990;49.548;9.730;2024-03-23T01:49:15;6.77;;;5.40;;
16735;SDS011;17990;49.548;9.730;2024-03-23T01:51:42;9.67;;;6.20;;
16735;SDS011;17990;49.548;9.730;2024-03-23T01:54:08;10.80;;;6.00;;
16735;SDS011;17990;49.548;9.730;2024-03-23T01:56:36;7.13;;;5.63;;
16735;SDS011;17990;49.548;9.730;2024-03-23T01:59:02;10.07;;;6.03;;
16735;SDS011;17990;49.548;9.730;2024-03-23T02:01:29;12.90;;;6.00;;
16735;SDS011;17990;49.548;9.730;2024-03-23T02:03:56;10.30;;;6.00;;
16735;SDS011;17990;49.548;9.730;2024-03-23T02:06:23;7.47;;;5.60;;
16735;SDS011;17990;49.548;9.730;2024-03-23T02:08:50;10.20;;;6.13;;
16735;SDS011;17990;49.548;9.730;2024-03-23T02:11:17;9.80;;;5.90;;
16735;SDS011;17990;49.548;9.730;2024-03-23T02:13:43;9.20;;;5.90;;
16735;SDS011;17990;49.548;9.730;2024-03-23T02:16:10;7.93;;;5.20;;
16735;SDS011;17990;49.548;9.730;2024-03-23T02:18:36;7.87;;;5.73;;
16735;SDS011;17990;49.548;9.730;2024-03-23T02:21:04;7.97;;;5.40;;
16735;SDS011;17990;49.548;9.730;2024-03-23T02:23:32;9.57;;;5.93;;
16735;SDS011;17990;49.548;9.730;2024-03-23T02:25:59;7.33;;;5.30;;
16735;SDS011;17990;49.548;9.730;2024-03-23T02:28:25;8.23;;;5.90;;
16735;SDS011;17990;49.548;9.730;2024-03-23T02:30:52;9.30;;;6.10;;
16735;SDS011;17990;49.548;9.730;2024-03-23T02:33:17;9.77;;;6.20;;
16735;SDS011;17990;49.548;9.730;2024-03-23T02:35:45;10.17;;;5.97;;
16735;SDS011;17990;49.548;9.730;2024-03-23T02:38:12;9.13;;;5.83;;
16735;SDS011;17990;49.548;9.730;2024-03-23T02:40:40;7.53;;;5.27;;
16735;SDS011;17990;49.548;9.730;2024-03-23T02:43:06;7.77;;;5.80;;
16735;SDS011;17990;49.548;9.730;2024-03-23T02:45:33;12.20;;;5.90;;
16735;SDS011;17990;49.548;9.730;2024-03-23T02:47:59;7.40;;;5.80;;
16735;SDS011;17990;49.548;9.730;2024-03-23T02:50:25;8.67;;;5.60;;
16735;SDS011;17990;49.548;9.730;2024-03-23T02:52:51;9.30;;;5.47;;
16735;SDS011;17990;49.548;9.730;2024-03-23T02:55:18;8.70;;;5.37;;
16735;SDS011;17990;49.548;9.730;2024-03-23T02:57:46;7.70;;;5.57;;
16735;SDS011;17990;49.548;9.730;2024-03-23T03:00:13;8.67;;;6.00;;
16735;SDS011;17990;49.548;9.730;2024-03-23T03:02:39;7.03;;;5.60;;
16735;SDS011;17990;49.548;9.730;2024-03-23T03:05:06;11.60;;;6.17;;
16735;SDS011;17990;49.548;9.730;2024-03-23T03:07:33;7.77;;;5.80;;
16735;SDS011;17990;49.548;9.730;2024-03-23T03:10:02;9.83;;;5.43;;
16735;SDS011;17990;49.548;9.730;2024-03-23T03:12:30;9.83;;;6.00;;
16735;SDS011;17990;49.548;9.730;2024-03-23T03:14:58;7.90;;;6.30;;
16735;SDS011;17990;49.548;9.730;2024-03-23T03:17:24;9.33;;;6.30;;
16735;SDS011;17990;49.548;9.730;2024-03-23T03:19:51;8.27;;;6.63;;
16735;SDS011;17990;49.548;9.730;2024-03-23T03:22:20;10.03;;;6.63;;
16735;SDS011;17990;49.548;9.730;2024-03-23T03:24:47;9.03;;;6.77;;
16735;SDS011;17990;49.548;9.730;2024-03-23T03:27:13;10.27;;;6.87;;
16735;SDS011;17990;49.548;9.730;2024-03-23T03:29:40;12.27;;;7.30;;
16735;SDS011;17990;49.548;9.730;2024-03-23T03:32:08;8.70;;;6.53;;
16735;SDS011;17990;49.548;9.730;2024-03-23T03:34:34;10.97;;;6.63;;
16735;SDS011;17990;49.548;9.730;2024-03-23T03:37:00;13.80;;;7.70;;
16735;SDS011;17990;49.548;9.730;2024-03-23T03:39:27;10.27;;;6.73;;
16735;SDS011;17990;49.548;9.730;2024-03-23T03:41:53;8.90;;;6.97;;
16735;SDS011;17990;49.548;9.730;2024-03-23T03:44:20;8.93;;;6.87;;
16735;SDS011;17990;49.548;9.730;2024-03-23T03:46:46;8.23;;;6.57;;
16735;SDS011;17990;49.548;9.730;2024-03-23T03:49:14;8.77;;;6.33;;
16735;SDS011;17990;49.548;9.730;2024-03-23T03:51:40;8.63;;;6.40;;
16735;SDS011;17990;49.548;9.730;2024-03-23T03:54:07;8.17;;;6.20;;
16735;SDS011;17990;49.548;9.730;2024-03-23T03:56:33;7.40;;;5.80;;
16735;SDS011;17990;49.548;9.730;2024-03-23T03:59:00;8.27;;;6.23;;
16735;SDS011;17990;49.548;9.730;2024-03-23T04:01:25;7.33;;;5.97;;
16735;SDS011;17990;49.548;9.730;2024-03-23T04:03:52;12.03;;;8.23;;
16735;SDS011;17990;49.548;9.730;2024-03-23T04:06:20;11.73;;;6.87;;
16735;SDS011;17990;49.548;9.730;2024-03-23T04:08:47;8.40;;;6.00;;
16735;SDS011;17990;49.548;9.730;2024-03-23T04:11:13;7.73;;;5.40;;
16735;SDS011;17990;49.548;9.730;2024-03-23T04:13:40;7.33;;;6.03;;
16735;SDS011;17990;49.548;9.730;2024-03-23T04:16:06;12.33;;;8.00;;
16735;SDS011;17990;49.548;9.730;2024-03-23T04:18:33;7.70;;;5.87;;
16735;SDS011;17990;49.548;9.730;2024-03-23T04:21:00;8.07;;;5.17;;
16735;SDS011;17990;49.548;9.730;2024-03-23T04:23:29;8.20;;;4.90;;
16735;SDS011;17990;49.548;9.730;2024-03-23T04:25:55;6.40;;;4.60;;
16735;SDS011;17990;49.548;9.730;2024-03-23T04:28:23;9.13;;;5.00;;
16735;SDS011;17990;49.548;9.730;2024-03-23T04:30:49;5.00;;;4.20;;
16735;SDS011;17990;49.548;9.730;2024-03-23T04:33:16;6.33;;;4.60;;
16735;SDS011;17990;49.548;9.730;2024-03-23T04:35:42;5.07;;;4.40;;
16735;SDS011;17990;49.548;9.730;2024-03-23T04:38:09;6.80;;;3.93;;
16735;SDS011;17990;49.548;9.730;2024-03-23T04:40:37;9.77;;;5.77;;
16735;SDS011;17990;49.548;9.730;2024-03-23T04:43:04;13.57;;;7.20;;
16735;SDS011;17990;49.548;9.730;2024-03-23T04:45:31;9.70;;;6.23;;
16735;SDS011;17990;49.548;9.730;2024-03-23T04:47:58;12.90;;;6.80;;
16735;SDS011;17990;49.548;9.730;2024-03-23T04:50:24;6.97;;;4.40;;
16735;SDS011;17990;49.548;9.730;2024-03-23T04:52:52;5.70;;;4.37;;
16735;SDS011;17990;49.548;9.730;2024-03-23T04:55:19;10.87;;;5.00;;
16735;SDS011;17990;49.548;9.730;2024-03-23T04:57:49;6.70;;;5.03;;
16735;SDS011;17990;49.548;9.730;2024-03-23T05:00:14;10.10;;;5.10;;
16735;SDS011;17990;49.548;9.730;2024-03-23T05:02:43;8.00;;;5.40;;
16735;SDS011;17990;49.548;9.730;2024-03-23T05:05:10;8.20;;;5.57;;
16735;SDS011;17990;49.548;9.730;2024-03-23T05:07:37;9.10;;;5.60;;
16735;SDS011;17990;49.548;9.730;2024-03-23T05:10:03;8.67;;;5.53;;
16735;SDS011;17990;49.548;9.730;2024-03-23T05:12:31;8.57;;;5.43;;
16735;SDS011;17990;49.548;9.730;2024-03-23T05:14:58;9.13;;;6.30;;
16735;SDS011;17990;49.548;9.730;2024-03-23T05:17:25;7.63;;;5.80;;
16735;SDS011;17990;49.548;9.730;2024-03-23T05:19:51;7.60;;;5.43;;
16735;SDS011;17990;49.548;9.730;2024-03-23T05:22:18;10.17;;;6.23;;
16735;SDS011;17990;49.548;9.730;2024-03-23T05:24:44;11.63;;;6.63;;
16735;SDS011;17990;49.548;9.730;2024-03-23T05:27:11;9.30;;;6.10;;
16735;SDS011;17990;49.548;9.730;2024-03-23T05:29:37;8.87;;;5.63;;
16735;SDS011;17990;49.548;9.730;2024-03-23T05:32:06;9.83;;;6.50;;
16735;SDS011;17990;49.548;9.730;2024-03-23T05:34:32;8.10;;;6.00;;
16735;SDS011;17990;49.548;9.730;2024-03-23T05:37:01;10.50;;;7.00;;
16735;SDS011;17990;49.548;9.730;2024-03-23T05:39:28;8.37;;;6.40;;
16735;SDS011;17990;49.548;9.730;2024-03-23T05:41:55;9.27;;;6.60;;
16735;SDS011;17990;49.548;9.730;2024-03-23T05:44:20;10.47;;;6.07;;
16735;SDS011;17990;49.548;9.730;2024-03-23T05:46:47;11.97;;;6.50;;
16735;SDS011;17990;49.548;9.730;2024-03-23T05:49:15;10.40;;;6.03;;
16735;SDS011;17990;49.548;9.730;2024-03-23T05:51:42;12.80;;;7.47;;
16735;SDS011;17990;49.548;9.730;2024-03-23T05:54:08;13.37;;;6.53;;
16735;SDS011;17990;49.548;9.730;2024-03-23T05:56:35;11.17;;;7.00;;
16735;SDS011;17990;49.548;9.730;2024-03-23T05:59:01;10.60;;;6.70;;
16735;SDS011;17990;49.548;9.730;2024-03-23T06:01:28;10.70;;;6.50;;
16735;SDS011;17990;49.548;9.730;2024-03-23T06:03:57;11.43;;;6.97;;
16735;SDS011;17990;49.548;9.730;2024-03-23T06:06:27;10.07;;;6.67;;
16735;SDS011;17990;49.548;9.730;2024-03-23T06:08:55;10.67;;;6.80;;
16735;SDS011;17990;49.548;9.730;2024-03-23T06:11:22;12.30;;;6.60;;
16735;SDS011;17990;49.548;9.730;2024-03-23T06:13:48;8.43;;;6.00;;
16735;SDS011;17990;49.548;9.730;2024-03-23T06:16:15;10.67;;;6.50;;
16735;SDS011;17990;49.548;9.730;2024-03-23T06:18:41;8.93;;;6.37;;
16735;SDS011;17990;49.548;9.730;2024-03-23T06:21:12;8.70;;;5.57;;
16735;SDS011;17990;49.548;9.730;2024-03-23T06:23:40;13.10;;;6.43;;
16735;SDS011;17990;49.548;9.730;2024-03-23T06:26:07;8.83;;;6.30;;
16735;SDS011;17990;49.548;9.730;2024-03-23T06:28:33;8.97;;;5.80;;
16735;SDS011;17990;49.548;9.730;2024-03-23T06:31:01;9.20;;;5.27;;
16735;SDS011;17990;49.548;9.730;2024-03-23T06:33:27;10.57;;;6.53;;
16735;SDS011;17990;49.548;9.730;2024-03-23T06:35:54;8.37;;;5.77;;
16735;SDS011;17990;49.548;9.730;2024-03-23T06:38:20;10.10;;;5.43;;
16735;SDS011;17990;49.548;9.730;2024-03-23T06:40:48;8.90;;;5.20;;
16735;SDS011;17990;49.548;9.730;2024-03-23T06:43:15;5.93;;;4.37;;
16735;SDS011;17990;49.548;9.730;2024-03-23T06:45:42;7.03;;;5.03;;
16735;SDS011;17990;49.548;9.730;2024-03-23T06:48:08;4.73;;;3.80;;
16735;SDS011;17990;49.548;9.730;2024-03-23T06:50:35;6.40;;;3.77;;
16735;SDS011;17990;49.548;9.730;2024-03-23T06:53:01;5.00;;;3.40;;
16735;SDS011;17990;49.548;9.730;2024-03-23T06:55:30;6.20;;;3.50;;
16735;SDS011;17990;49.548;9.730;2024-03-23T06:57:57;4.93;;;3.50;;
16735;SDS011;17990;49.548;9.730;2024-03-23T07:00:24;3.50;;;2.40;;
16735;SDS011;17990;49.548;9.730;2024-03-23T07:02:51;2.60;;;1.70;;
16735;SDS011;17990;49.548;9.730;2024-03-23T07:05:18;4.17;;;2.13;;
16735;SDS011;17990;49.548;9.730;2024-03-23T07:07:44;2.90;;;1.63;;
16735;SDS011;17990;49.548;9.730;2024-03-23T07:10:10;1.80;;;1.20;;
16735;SDS011;17990;49.548;9.730;2024-03-23T07:12:36;1.27;;;1.00;;
16735;SDS011;17990;49.548;9.730;2024-03-23T07:15:05;1.57;;;0.90;;
16735;SDS011;17990;49.548;9.730;2024-03-23T07:17:33;1.60;;;1.00;;
16735;SDS011;17990;49.548;9.730;2024-03-23T07:20:00;1.63;;;1.00;;
16735;SDS011;17990;49.548;9.730;2024-03-23T07:22:28;1.53;;;1.00;;
16735;SDS011;17990;49.548;9.730;2024-03-23T07:24:55;1.57;;;1.10;;
16735;SDS011;17990;49.548;9.730;2024-03-23T07:27:21;1.60;;;1.20;;
16735;SDS011;17990;49.548;9.730;2024-03-23T07:29:48;1.83;;;1.50;;
16735;SDS011;17990;49.548;9.730;2024-03-23T07:32:16;1.60;;;1.30;;
16735;SDS011;17990;49.548;9.730;2024-03-23T07:34:42;1.53;;;1.43;;
16735;SDS011;17990;49.548;9.730;2024-03-23T07:37:09;1.50;;;1.30;;
16735;SDS011;17990;49.548;9.730;2024-03-23T07:39:36;2.37;;;1.73;;
16735;SDS011;17990;49.548;9.730;2024-03-23T07:42:02;1.53;;;1.40;;
16735;SDS011;17990;49.548;9.730;2024-03-23T07:44:29;1.77;;;1.50;;
16735;SDS011;17990;49.548;9.730;2024-03-23T07:46:55;2.00;;;1.73;;
16735;SDS011;17990;49.548;9.730;2024-03-23T07:49:23;2.50;;;1.80;;
16735;SDS011;17990;49.548;9.730;2024-03-23T07:51:49;1.60;;;1.47;;
16735;SDS011;17990;49.548;9.730;2024-03-23T07:54:16;2.03;;;1.80;;
16735;SDS011;17990;49.548;9.730;2024-03-23T07:56:42;1.70;;;1.40;;
16735;SDS011;17990;49.548;9.730;2024-03-23T07:59:09;2.10;;;1.70;;
16735;SDS011;17990;49.548;9.730;2024-03-23T08:01:36;1.27;;;1.07;;
16735;SDS011;17990;49.548;9.730;2024-03-23T08:04:03;1.23;;;1.13;;
16735;SDS011;17990;49.548;9.730;2024-03-23T08:06:30;1.10;;;1.00;;
16735;SDS011;17990;49.548;9.730;2024-03-23T08:08:57;2.27;;;1.30;;
16735;SDS011;17990;49.548;9.730;2024-03-23T08:11:27;1.13;;;1.00;;
16735;SDS011;17990;49.548;9.730;2024-03-23T08:13:55;1.37;;;1.17;;
16735;SDS011;17990;49.548;9.730;2024-03-23T08:16:22;2.17;;;1.07;;
16735;SDS011;17990;49.548;9.730;2024-03-23T08:18:50;1.20;;;0.83;;
16735;SDS011;17990;49.548;9.730;2024-03-23T08:21:16;1.30;;;1.00;;
16735;SDS011;17990;49.548;9.730;2024-03-23T08:23:45;1.00;;;0.90;;
16735;SDS011;17990;49.548;9.730;2024-03-23T08:26:11;0.80;;;0.60;;
16735;SDS011;17990;49.548;9.730;2024-03-23T08:28:42;0.83;;;0.70;;
16735;SDS011;17990;49.548;9.730;2024-03-23T08:31:09;1.03;;;0.70;;
16735;SDS011;17990;49.548;9.730;2024-03-23T08:33:37;0.70;;;0.60;;
16735;SDS011;17990;49.548;9.730;2024-03-23T08:36:05;0.70;;;0.40;;
16735;SDS011;17990;49.548;9.730;2024-03-23T08:38:33;0.53;;;0.30;;
16735;SDS011;17990;49.548;9.730;2024-03-23T08:41:01;0.70;;;0.40;;
16735;SDS011;17990;49.548;9.730;2024-03-23T08:43:30;0.20;;;0.20;;
16735;SDS011;17990;49.548;9.730;2024-03-23T08:46:03;0.60;;;0.33;;
16735;SDS011;17990;49.548;9.730;2024-03-23T08:48:31;1.27;;;0.40;;
16735;SDS011;17990;49.548;9.730;2024-03-23T08:50:59;2.33;;;0.50;;
16735;SDS011;17990;49.548;9.730;2024-03-23T08:53:27;1.97;;;0.40;;
16735;SDS011;17990;49.548;9.730;2024-03-23T08:55:53;1.17;;;0.40;;
16735;SDS011;17990;49.548;9.730;2024-03-23T08:58:23;2.80;;;0.67;;
16735;SDS011;17990;49.548;9.730;2024-03-23T09:00:50;3.10;;;0.70;;
16735;SDS011;17990;49.548;9.730;2024-03-23T09:03:17;1.10;;;0.40;;
16735;SDS011;17990;49.548;9.730;2024-03-23T09:05:43;1.83;;;0.50;;
16735;SDS011;17990;49.548;9.730;2024-03-23T09:08:10;2.77;;;0.50;;
16735;SDS011;17990;49.548;9.730;2024-03-23T09:10:37;0.70;;;0.50;;
16735;SDS011;17990;49.548;9.730;2024-03-23T09:13:05;0.80;;;0.43;;
16735;SDS011;17990;49.548;9.730;2024-03-23T09:15:33;1.30;;;0.57;;
16735;SDS011;17990;49.548;9.730;2024-03-23T09:18:02;0.73;;;0.57;;
16735;SDS011;17990;49.548;9.730;2024-03-23T09:20:29;1.70;;;0.60;;
16735;SDS011;17990;49.548;9.730;2024-03-23T09:22:58;1.17;;;0.50;;
16735;SDS011;17990;49.548;9.730;2024-03-23T09:25:24;10.93;;;1.47;;
16735;SDS011;17990;49.548;9.730;2024-03-23T09:27:51;1.37;;;0.60;;
16735;SDS011;17990;49.548;9.730;2024-03-23T09:30:17;1.03;;;0.70;;
16735;SDS011;17990;49.548;9.730;2024-03-23T09:32:46;1.87;;;0.97;;
16735;SDS011;17990;49.548;9.730;2024-03-23T09:35:12;2.80;;;1.17;;
16735;SDS011;17990;49.548;9.730;2024-03-23T09:37:39;2.47;;;0.90;;
16735;SDS011;17990;49.548;9.730;2024-03-23T09:40:05;2.77;;;1.13;;
16735;SDS011;17990;49.548;9.730;2024-03-23T09:42:35;5.13;;;2.77;;
16735;SDS011;17990;49.548;9.730;2024-03-23T09:45:01;2.83;;;1.37;;
16735;SDS011;17990;49.548;9.730;2024-03-23T09:47:31;4.87;;;1.80;;
16735;SDS011;17990;49.548;9.730;2024-03-23T09:49:59;5.33;;;2.60;;
16735;SDS011;17990;49.548;9.730;2024-03-23T09:52:27;1.63;;;0.90;;
16735;SDS011;17990;49.548;9.730;2024-03-23T09:54:53;4.73;;;1.50;;
16735;SDS011;17990;49.548;9.730;2024-03-23T09:57:20;2.57;;;1.20;;
16735;SDS011;17990;49.548;9.730;2024-03-23T09:59:45;3.87;;;1.20;;
16735;SDS011;17990;49.548;9.730;2024-03-23T10:02:12;4.13;;;1.50;;
16735;SDS011;17990;49.548;9.730;2024-03-23T10:04:42;4.43;;;1.27;;
16735;SDS011;17990;49.548;9.730;2024-03-23T10:07:14;2.93;;;1.40;;
16735;SDS011;17990;49.548;9.730;2024-03-23T10:09:42;5.33;;;2.03;;
16735;SDS011;17990;49.548;9.730;2024-03-23T10:12:09;4.37;;;1.70;;
16735;SDS011;17990;49.548;9.730;2024-03-23T10:14:37;2.67;;;1.00;;
16735;SDS011;17990;49.548;9.730;2024-03-23T10:17:11;3.20;;;1.27;;
16735;SDS011;17990;49.548;9.730;2024-03-23T10:19:39;3.47;;;1.20;;
16735;SDS011;17990;49.548;9.730;2024-03-23T10:22:07;7.43;;;1.27;;
16735;SDS011;17990;49.548;9.730;2024-03-23T10:24:35;3.00;;;1.30;;
16735;SDS011;17990;49.548;9.730;2024-03-23T10:27:02;3.97;;;1.30;;
16735;SDS011;17990;49.548;9.730;2024-03-23T10:29:28;4.10;;;1.43;;
16735;SDS011;17990;49.548;9.730;2024-03-23T10:32:00;2.83;;;1.30;;
16735;SDS011;17990;49.548;9.730;2024-03-23T10:34:33;3.80;;;1.47;;
16735;SDS011;17990;49.548;9.730;2024-03-23T10:37:01;3.07;;;1.30;;
16735;SDS011;17990;49.548;9.730;2024-03-23T10:39:29;2.23;;;1.50;;
16735;SDS011;17990;49.548;9.730;2024-03-23T10:42:01;2.87;;;1.40;;
16735;SDS011;17990;49.548;9.730;2024-03-23T10:44:29;3.47;;;1.43;;
16735;SDS011;17990;49.548;9.730;2024-03-23T10:46:57;3.03;;;1.17;;
16735;SDS011;17990;49.548;9.730;2024-03-23T10:49:27;3.20;;;1.23;;
16735;SDS011;17990;49.548;9.730;2024-03-23T10:51:58;4.93;;;1.30;;
16735;SDS011;17990;49.548;9.730;2024-03-23T10:54:25;5.43;;;1.70;;
16735;SDS011;17990;49.548;9.730;2024-03-23T10:56:55;7.27;;;2.30;;
16735;SDS011;17990;49.548;9.730;2024-03-23T10:59:27;4.00;;;1.43;;
16735;SDS011;17990;49.548;9.730;2024-03-23T11:01:55;5.33;;;1.50;;
16735;SDS011;17990;49.548;9.730;2024-03-23T11:04:32;4.10;;;1.20;;
16735;SDS011;17990;49.548;9.730;2024-03-23T11:06:59;3.33;;;1.30;;
16735;SDS011;17990;49.548;9.730;2024-03-23T11:09:39;3.83;;;1.40;;
16735;SDS011;17990;49.548;9.730;2024-03-23T11:12:26;3.97;;;1.67;;
16735;SDS011;17990;49.548;9.730;2024-03-23T11:15:01;4.57;;;1.60;;
16735;SDS011;17990;49.548;9.730;2024-03-23T11:17:29;24.30;;;2.83;;
16735;SDS011;17990;49.548;9.730;2024-03-23T11:19:56;11.83;;;1.50;;
16735;SDS011;17990;49.548;9.730;2024-03-23T11:22:39;6.97;;;1.40;;
16735;SDS011;17990;49.548;9.730;2024-03-23T11:25:14;6.33;;;1.70;;
16735;SDS011;17990;49.548;9.730;2024-03-23T11:27:48;3.83;;;1.73;;
16735;SDS011;17990;49.548;9.730;2024-03-23T11:30:16;4.50;;;1.30;;
16735;SDS011;17990;49.548;9.730;2024-03-23T11:32:45;2.97;;;1.20;;
16735;SDS011;17990;49.548;9.730;2024-03-23T11:35:24;3.93;;;1.50;;
16735;SDS011;17990;49.548;9.730;2024-03-23T11:38:02;5.90;;;1.33;;
16735;SDS011;17990;49.548;9.730;2024-03-23T11:40:32;4.97;;;1.37;;
16735;SDS011;17990;49.548;9.730;2024-03-23T11:43:02;5.97;;;1.73;;
16735;SDS011;17990;49.548;9.730;2024-03-23T11:45:29;4.77;;;1.10;;
16735;SDS011;17990;49.548;9.730;2024-03-23T11:48:04;2.60;;;1.07;;
16735;SDS011;17990;49.548;9.730;2024-03-23T11:50:32;4.67;;;1.50;;
16735;SDS011;17990;49.548;9.730;2024-03-23T11:53:06;5.47;;;1.50;;
16735;SDS011;17990;49.548;9.730;2024-03-23T11:55:43;3.20;;;1.40;;
16735;SDS011;17990;49.548;9.730;2024-03-23T11:58:16;7.27;;;1.37;;
16735;SDS011;17990;49.548;9.730;2024-03-23T12:00:49;3.70;;;1.60;;
16735;SDS011;17990;49.548;9.730;2024-03-23T12:03:17;4.97;;;1.27;;
16735;SDS011;17990;49.548;9.730;2024-03-23T12:05:47;4.43;;;1.53;;
16735;SDS011;17990;49.548;9.730;2024-03-23T12:08:18;4.67;;;1.20;;
16735;SDS011;17990;49.548;9.730;2024-03-23T12:10:47;5.00;;;1.60;;
16735;SDS011;17990;49.548;9.730;2024-03-23T12:13:18;6.83;;;1.63;;
16735;SDS011;17990;49.548;9.730;2024-03-23T12:15:45;3.77;;;1.30;;
16735;SDS011;17990;49.548;9.730;2024-03-23T12:18:15;5.40;;;1.47;;
16735;SDS011;17990;49.548;9.730;2024-03-23T12:20:41;5.63;;;1.70;;
16735;SDS011;17990;49.548;9.730;2024-03-23T12:23:09;4.43;;;1.50;;
16735;SDS011;17990;49.548;9.730;2024-03-23T12:25:36;4.43;;;1.40;;
16735;SDS011;17990;49.548;9.730;2024-03-23T12:28:04;4.67;;;1.50;;
16735;SDS011;17990;49.548;9.730;2024-03-23T12:30:33;3.97;;;1.57;;
16735;SDS011;17990;49.548;9.730;2024-03-23T12:33:01;3.73;;;1.27;;
16735;SDS011;17990;49.548;9.730;2024-03-23T12:35:28;5.13;;;1.53;;
16735;SDS011;17990;49.548;9.730;2024-03-23T12:37:55;6.17;;;1.70;;
16735;SDS011;17990;49.548;9.730;2024-03-23T12:40:21;3.53;;;1.10;;
16735;SDS011;17990;49.548;9.730;2024-03-23T12:42:48;4.83;;;1.67;;
16735;SDS011;17990;49.548;9.730;2024-03-23T12:45:14;4.67;;;1.63;;
16735;SDS011;17990;49.548;9.730;2024-03-23T12:47:42;5.70;;;1.50;;
16735;SDS011;17990;49.548;9.730;2024-03-23T12:50:08;4.93;;;1.20;;
16735;SDS011;17990;49.548;9.730;2024-03-23T12:52:36;4.93;;;1.33;;
16735;SDS011;17990;49.548;9.730;2024-03-23T12:55:02;3.80;;;1.63;;
16735;SDS011;17990;49.548;9.730;2024-03-23T12:57:30;3.30;;;1.33;;
16735;SDS011;17990;49.548;9.730;2024-03-23T12:59:57;3.43;;;1.40;;
16735;SDS011;17990;49.548;9.730;2024-03-23T13:02:24;4.17;;;1.20;;
16735;SDS011;17990;49.548;9.730;2024-03-23T13:04:51;2.97;;;1.10;;
16735;SDS011;17990;49.548;9.730;2024-03-23T13:07:19;4.17;;;1.60;;
16735;SDS011;17990;49.548;9.730;2024-03-23T13:09:46;4.03;;;1.30;;
16735;SDS011;17990;49.548;9.730;2024-03-23T13:12:16;5.00;;;1.43;;
16735;SDS011;17990;49.548;9.730;2024-03-23T13:14:43;2.70;;;1.40;;
16735;SDS011;17990;49.548;9.730;2024-03-23T13:17:10;4.47;;;1.60;;
16735;SDS011;17990;49.548;9.730;2024-03-23T13:19:36;4.53;;;1.40;;
16735;SDS011;17990;49.548;9.730;2024-03-23T13:22:05;4.80;;;1.50;;
16735;SDS011;17990;49.548;9.730;2024-03-23T13:24:31;4.13;;;1.30;;
16735;SDS011;17990;49.548;9.730;2024-03-23T13:26:58;3.60;;;1.20;;
16735;SDS011;17990;49.548;9.730;2024-03-23T13:29:24;3.80;;;1.43;;
16735;SDS011;17990;49.548;9.730;2024-03-23T13:31:51;5.93;;;1.50;;
16735;SDS011;17990;49.548;9.730;2024-03-23T13:34:17;3.83;;;1.40;;
16735;SDS011;17990;49.548;9.730;2024-03-23T13:36:45;4.73;;;1.60;;
16735;SDS011;17990;49.548;9.730;2024-03-23T13:39:13;8.00;;;2.80;;
16735;SDS011;17990;49.548;9.730;2024-03-23T13:41:41;7.20;;;1.90;;
16735;SDS011;17990;49.548;9.730;2024-03-23T13:44:09;4.90;;;2.20;;
16735;SDS011;17990;49.548;9.730;2024-03-23T13:46:38;4.23;;;1.30;;
16735;SDS011;17990;49.548;9.730;2024-03-23T13:49:04;4.37;;;1.57;;
16735;SDS011;17990;49.548;9.730;2024-03-23T13:51:32;6.10;;;1.13;;
16735;SDS011;17990;49.548;9.730;2024-03-23T13:53:58;3.10;;;1.00;;
16735;SDS011;17990;49.548;9.730;2024-03-23T13:56:27;2.73;;;0.83;;
16735;SDS011;17990;49.548;9.730;2024-03-23T13:58:54;2.57;;;1.00;;
16735;SDS011;17990;49.548;9.730;2024-03-23T14:01:21;1.80;;;1.10;;
16735;SDS011;17990;49.548;9.730;2024-03-23T14:03:47;1.90;;;1.17;;
16735;SDS011;17990;49.548;9.730;2024-03-23T14:06:14;3.60;;;1.50;;
16735;SDS011;17990;49.548;9.730;2024-03-23T14:08:40;2.23;;;0.50;;
16735;SDS011;17990;49.548;9.730;2024-03-23T14:11:08;0.90;;;0.50;;
16735;SDS011;17990;49.548;9.730;2024-03-23T14:13:36;1.57;;;0.80;;
16735;SDS011;17990;49.548;9.730;2024-03-23T14:16:04;2.87;;;0.97;;
16735;SDS011;17990;49.548;9.730;2024-03-23T14:18:30;1.10;;;0.50;;
16735;SDS011;17990;49.548;9.730;2024-03-23T14:20:58;1.67;;;0.60;;
16735;SDS011;17990;49.548;9.730;2024-03-23T14:23:25;2.43;;;0.77;;
16735;SDS011;17990;49.548;9.730;2024-03-23T14:25:53;1.93;;;0.63;;
16735;SDS011;17990;49.548;9.730;2024-03-23T14:28:19;1.73;;;0.97;;
16735;SDS011;17990;49.548;9.730;2024-03-23T14:30:48;6.80;;;1.40;;
16735;SDS011;17990;49.548;9.730;2024-03-23T14:33:14;2.07;;;0.90;;
16735;SDS011;17990;49.548;9.730;2024-03-23T14:35:42;2.23;;;0.80;;
16735;SDS011;17990;49.548;9.730;2024-03-23T14:38:09;2.63;;;1.00;;
16735;SDS011;17990;49.548;9.730;2024-03-23T14:40:35;3.10;;;1.47;;
16735;SDS011;17990;49.548;9.730;2024-03-23T14:43:01;4.03;;;1.17;;
16735;SDS011;17990;49.548;9.730;2024-03-23T14:45:28;3.57;;;0.80;;
16735;SDS011;17990;49.548;9.730;2024-03-23T14:47:55;1.13;;;0.60;;
16735;SDS011;17990;49.548;9.730;2024-03-23T14:50:23;2.03;;;0.70;;
16735;SDS011;17990;49.548;9.730;2024-03-23T14:52:50;1.43;;;0.50;;
16735;SDS011;17990;49.548;9.730;2024-03-23T14:55:17;1.00;;;0.50;;
16735;SDS011;17990;49.548;9.730;2024-03-23T14:57:43;0.53;;;0.30;;
16735;SDS011;17990;49.548;9.730;2024-03-23T15:00:10;2.13;;;0.70;;
16735;SDS011;17990;49.548;9.730;2024-03-23T15:02:37;1.87;;;0.70;;
16735;SDS011;17990;49.548;9.730;2024-03-23T15:05:05;1.87;;;0.77;;
16735;SDS011;17990;49.548;9.730;2024-03-23T15:07:34;1.43;;;0.77;;
16735;SDS011;17990;49.548;9.730;2024-03-23T15:10:02;1.33;;;0.60;;
16735;SDS011;17990;49.548;9.730;2024-03-23T15:12:29;2.90;;;0.50;;
16735;SDS011;17990;49.548;9.730;2024-03-23T15:14:58;1.30;;;0.70;;
16735;SDS011;17990;49.548;9.730;2024-03-23T15:17:24;4.40;;;0.90;;
16735;SDS011;17990;49.548;9.730;2024-03-23T15:19:50;1.90;;;0.50;;
16735;SDS011;17990;49.548;9.730;2024-03-23T15:22:19;4.13;;;0.90;;
16735;SDS011;17990;49.548;9.730;2024-03-23T15:24:46;2.80;;;0.80;;
16735;SDS011;17990;49.548;9.730;2024-03-23T15:27:12;2.73;;;0.87;;
16735;SDS011;17990;49.548;9.730;2024-03-23T15:29:39;2.67;;;0.70;;
16735;SDS011;17990;49.548;9.730;2024-03-23T15:32:07;2.13;;;0.60;;
16735;SDS011;17990;49.548;9.730;2024-03-23T15:34:34;1.93;;;0.60;;
16735;SDS011;17990;49.548;9.730;2024-03-23T15:37:00;1.27;;;0.30;;
16735;SDS011;17990;49.548;9.730;2024-03-23T15:39:28;1.03;;;0.30;;
16735;SDS011;17990;49.548;9.730;2024-03-23T15:41:54;2.57;;;0.67;;